createdAt,value
2023-09-03T00:02:04.005Z,93.10
2023-09-03T00:04:32.881Z,94.58
2023-09-03T00:07:00.343Z,96.72
2023-09-03T00:09:27.800Z,94.46
2023-09-03T00:11:55.290Z,94.31
2023-09-03T00:14:22.700Z,94.70
2023-09-03T00:16:50.177Z,95.14
2023-09-03T00:19:17.689Z,95.02
2023-09-03T00:21:46.522Z,90.55
2023-09-03T00:24:13.938Z,91.30
2023-09-03T00:26:42.235Z,95.24
2023-09-03T00:29:09.685Z,94.06
2023-09-03T00:31:37.093Z,94.34
2023-09-03T00:34:04.549Z,94.38
2023-09-03T00:36:32.156Z,95.26
2023-09-03T00:39:00.919Z,95.56
2023-09-03T00:41:30.198Z,96.05
2023-09-03T00:43:57.627Z,95.25
2023-09-03T00:46:25.656Z,96.09
2023-09-03T00:48:53.347Z,98.30
2023-09-03T00:51:20.815Z,96.46
2023-09-03T00:53:50.057Z,97.01
2023-09-03T00:56:19.862Z,97.81
2023-09-03T00:58:47.602Z,95.65
2023-09-03T01:01:15.292Z,95.91
2023-09-03T01:03:44.254Z,94.72
2023-09-03T01:06:12.155Z,94.35
2023-09-03T01:08:39.696Z,94.44
2023-09-03T01:11:11.021Z,97.46
2023-09-03T01:13:45.867Z,98.27
2023-09-03T01:16:19.480Z,99.80
2023-09-03T01:18:47.204Z,100.00
2023-09-03T01:21:33.614Z,100.00
2023-09-03T01:24:08.249Z,100.00
2023-09-03T01:26:41.659Z,100.00
2023-09-03T01:29:11.080Z,98.81
2023-09-03T01:31:38.971Z,98.88
2023-09-03T01:34:06.919Z,98.02
2023-09-03T01:36:35.515Z,98.00
2023-09-03T01:39:05.156Z,99.08
2023-09-03T01:41:33.605Z,100.00
2023-09-03T01:44:01.081Z,100.00
2023-09-03T01:46:42.112Z,100.00
2023-09-03T01:49:15.669Z,100.00
2023-09-03T01:51:46.660Z,100.00
2023-09-03T01:54:18.597Z,100.00
2023-09-03T01:56:48.342Z,100.00
2023-09-03T01:59:19.416Z,100.00
2023-09-03T02:01:49.089Z,100.00
2023-09-03T02:04:16.572Z,100.00
2023-09-03T02:06:46.456Z,100.00
2023-09-03T02:09:14.252Z,100.00
2023-09-03T02:11:41.813Z,100.00
2023-09-03T02:14:09.325Z,100.00
2023-09-03T02:16:36.853Z,100.00
2023-09-03T02:19:05.767Z,100.00
2023-09-03T02:21:33.256Z,100.00
2023-09-03T02:24:00.683Z,100.00
2023-09-03T02:26:28.154Z,100.00
2023-09-03T02:28:55.621Z,100.00
2023-09-03T02:31:23.089Z,99.92
2023-09-03T02:33:50.547Z,99.14
2023-09-03T02:36:19.318Z,97.06
2023-09-03T02:38:47.992Z,96.60
2023-09-03T02:41:15.409Z,95.68
2023-09-03T02:43:42.844Z,98.36
2023-09-03T02:46:10.989Z,96.75
2023-09-03T02:48:38.500Z,98.08
2023-09-03T02:51:05.903Z,96.78
2023-09-03T02:53:34.662Z,98.36
2023-09-03T02:56:02.099Z,97.86
2023-09-03T02:58:29.544Z,97.70
2023-09-03T03:00:57.663Z,99.56
2023-09-03T03:03:25.095Z,100.00
2023-09-03T03:05:53.903Z,99.19
2023-09-03T03:08:21.656Z,98.72
2023-09-03T03:10:51.301Z,98.03
2023-09-03T03:13:18.797Z,96.43
2023-09-03T03:15:47.478Z,94.40
2023-09-03T03:18:14.924Z,95.85
2023-09-03T03:20:42.528Z,96.05
2023-09-03T03:23:09.938Z,95.63
2023-09-03T03:25:37.381Z,95.16
2023-09-03T03:28:06.753Z,96.11
2023-09-03T03:30:34.177Z,97.94
2023-09-03T03:33:01.844Z,99.11
2023-09-03T03:35:29.392Z,99.95
2023-09-03T03:37:56.852Z,100.00
2023-09-03T03:40:24.299Z,98.43
2023-09-03T03:42:51.755Z,96.59
2023-09-03T03:45:20.641Z,93.59
2023-09-03T03:47:49.665Z,94.76
2023-09-03T03:50:17.185Z,97.00
2023-09-03T03:52:44.647Z,96.50
2023-09-03T03:55:12.863Z,96.90
2023-09-03T03:57:40.321Z,95.84
2023-09-03T04:00:08.862Z,94.43
2023-09-03T04:02:37.666Z,95.06
2023-09-03T04:05:05.295Z,97.02
2023-09-03T04:07:32.718Z,98.10
2023-09-03T04:10:01.089Z,98.38
2023-09-03T04:12:28.534Z,99.22
2023-09-03T04:14:55.981Z,99.84
2023-09-03T04:17:23.609Z,98.86
2023-09-03T04:19:52.568Z,99.33
2023-09-03T04:22:20.040Z,96.08
2023-09-03T04:24:47.458Z,95.28
2023-09-03T04:27:14.903Z,96.15
2023-09-03T04:29:42.355Z,97.26
2023-09-03T04:32:09.848Z,96.83
2023-09-03T04:34:37.406Z,98.37
2023-09-03T04:37:06.262Z,100.00
2023-09-03T04:39:33.772Z,97.76
2023-09-03T04:42:01.198Z,97.93
2023-09-03T04:44:28.656Z,99.84
2023-09-03T04:46:56.425Z,99.02
2023-09-03T04:49:24.304Z,99.02
2023-09-03T04:51:51.849Z,99.66
2023-09-03T04:54:20.613Z,100.00
2023-09-03T04:56:48.660Z,100.00
2023-09-03T04:59:16.385Z,99.91
2023-09-03T05:01:44.309Z,99.94
2023-09-03T05:04:11.762Z,100.00
2023-09-03T05:06:39.711Z,100.00
2023-09-03T05:09:09.535Z,100.00
2023-09-03T05:11:38.395Z,100.00
2023-09-03T05:14:05.860Z,99.27
2023-09-03T05:16:33.345Z,98.41
2023-09-03T05:19:05.776Z,98.20
2023-09-03T05:21:33.536Z,100.00
2023-09-03T05:24:00.983Z,100.00
2023-09-03T05:26:28.448Z,98.69
2023-09-03T05:28:57.215Z,96.41
2023-09-03T05:31:24.674Z,99.35
2023-09-03T05:33:52.144Z,100.00
2023-09-03T05:36:19.613Z,100.00
2023-09-03T05:38:47.059Z,100.00
2023-09-03T05:41:14.567Z,100.00
2023-09-03T05:43:42.240Z,100.00
2023-09-03T05:46:11.068Z,99.26
2023-09-03T05:48:38.532Z,100.00
2023-09-03T05:51:06.143Z,99.70
2023-09-03T05:53:33.817Z,100.00
2023-09-03T05:56:05.429Z,100.00
2023-09-03T05:58:32.859Z,100.00
2023-09-03T06:01:00.395Z,100.00
2023-09-03T06:03:29.261Z,100.00
2023-09-03T06:05:56.829Z,100.00
2023-09-03T06:08:24.421Z,100.00
2023-09-03T06:10:57.281Z,100.00
2023-09-03T06:13:25.076Z,100.00
2023-09-03T06:15:52.571Z,100.00
2023-09-03T06:18:20.308Z,100.00
2023-09-03T06:20:49.631Z,100.00
2023-09-03T06:23:19.806Z,100.00
2023-09-03T06:25:47.804Z,98.95
2023-09-03T06:28:15.350Z,98.71
2023-09-03T06:30:43.313Z,99.67
2023-09-03T06:33:13.243Z,100.00
2023-09-03T06:35:40.769Z,99.77
2023-09-03T06:38:09.557Z,99.51
2023-09-03T06:40:37.111Z,99.19
2023-09-03T06:43:04.710Z,97.19
2023-09-03T06:45:33.028Z,98.80
2023-09-03T06:48:00.581Z,100.00
2023-09-03T06:50:28.141Z,100.00
2023-09-03T06:52:55.564Z,98.48
2023-09-03T06:55:24.339Z,96.93
2023-09-03T06:57:51.898Z,92.54
2023-09-03T07:00:19.574Z,93.31
2023-09-03T07:02:47.077Z,92.39
2023-09-03T07:05:15.712Z,94.33
2023-09-03T07:07:43.473Z,95.47
2023-09-03T07:10:11.359Z,96.06
2023-09-03T07:12:40.144Z,97.03
2023-09-03T07:15:08.406Z,97.50
2023-09-03T07:17:35.885Z,96.72
2023-09-03T07:20:03.968Z,96.82
2023-09-03T07:22:31.504Z,96.73
2023-09-03T07:24:59.056Z,96.05
2023-09-03T07:27:26.492Z,95.89
2023-09-03T07:29:55.398Z,95.85
2023-09-03T07:32:23.141Z,95.29
2023-09-03T07:34:50.651Z,92.80
2023-09-03T07:37:19.106Z,91.37
2023-09-03T07:39:47.512Z,92.23
2023-09-03T07:42:15.280Z,91.63
2023-09-03T07:44:42.778Z,91.15
2023-09-03T07:47:11.596Z,90.15
2023-09-03T07:49:39.020Z,89.87
2023-09-03T07:52:07.722Z,89.52
2023-09-03T07:54:35.212Z,90.93
2023-09-03T07:57:02.638Z,90.00
2023-09-03T07:59:30.096Z,84.88
2023-09-03T08:01:59.866Z,85.64
2023-09-03T08:04:29.705Z,84.74
2023-09-03T08:06:57.194Z,84.17
2023-09-03T08:09:25.530Z,85.62
2023-09-03T08:11:53.659Z,84.16
2023-09-03T08:14:21.495Z,79.98
2023-09-03T08:16:48.973Z,80.07
2023-09-03T08:19:16.384Z,84.29
2023-09-03T08:21:46.007Z,82.19
2023-09-03T08:24:13.632Z,80.02
2023-09-03T08:26:41.077Z,76.98
2023-09-03T08:29:09.966Z,79.04
2023-09-03T08:31:37.469Z,78.77
2023-09-03T08:34:05.017Z,79.04
2023-09-03T08:36:32.491Z,76.85
2023-09-03T08:39:01.897Z,79.57
2023-09-03T08:41:29.764Z,76.11
2023-09-03T08:43:59.746Z,75.28
2023-09-03T08:46:30.888Z,75.57
2023-09-03T08:49:00.078Z,77.06
2023-09-03T08:51:28.113Z,76.41
2023-09-03T08:53:56.590Z,75.18
2023-09-03T08:56:25.752Z,73.59
2023-09-03T08:58:53.205Z,74.74
2023-09-03T09:01:21.614Z,75.87
2023-09-03T09:03:52.999Z,71.62
2023-09-03T09:06:21.809Z,72.07
2023-09-03T09:08:49.744Z,70.29
2023-09-03T09:11:19.426Z,70.46
2023-09-03T09:13:55.110Z,71.26
2023-09-03T09:16:22.569Z,72.98
2023-09-03T09:18:50.071Z,71.51
2023-09-03T09:21:18.820Z,70.18
2023-09-03T09:23:46.482Z,68.37
2023-09-03T09:26:17.824Z,68.81
2023-09-03T09:28:59.872Z,69.52
2023-09-03T09:31:31.625Z,69.01
2023-09-03T09:34:00.144Z,68.82
2023-09-03T09:36:27.692Z,67.96
2023-09-03T09:39:05.484Z,67.41
2023-09-03T09:41:38.602Z,65.85
2023-09-03T09:44:11.835Z,64.79
2023-09-03T09:46:39.931Z,64.70
2023-09-03T09:49:09.738Z,66.71
2023-09-03T09:51:37.303Z,63.59
2023-09-03T09:54:05.445Z,65.57
2023-09-03T09:56:35.399Z,68.96
2023-09-03T09:59:03.228Z,66.89
2023-09-03T10:01:43.938Z,66.67
2023-09-03T10:04:11.900Z,67.93
2023-09-03T10:06:40.016Z,66.58
2023-09-03T10:09:08.868Z,67.67
2023-09-03T10:11:36.418Z,65.87
2023-09-03T10:14:03.959Z,65.13
2023-09-03T10:16:34.104Z,65.59
2023-09-03T10:19:04.109Z,60.48
2023-09-03T10:21:52.434Z,62.13
2023-09-03T10:24:21.905Z,62.44
2023-09-03T10:26:52.215Z,58.63
2023-09-03T10:29:21.476Z,58.90
2023-09-03T10:31:49.551Z,58.83
2023-09-03T10:34:18.653Z,60.40
2023-09-03T10:37:04.221Z,61.81
2023-09-03T10:39:31.704Z,60.82
2023-09-03T10:42:17.947Z,62.18
2023-09-03T10:44:46.325Z,59.13
2023-09-03T10:47:18.297Z,59.45
2023-09-03T10:49:48.030Z,61.06
2023-09-03T10:52:35.962Z,60.92
2023-09-03T10:55:13.841Z,56.47
2023-09-03T10:57:41.637Z,54.78
2023-09-03T11:00:10.546Z,53.75
2023-09-03T11:02:38.811Z,51.42
2023-09-03T11:05:14.637Z,52.72
2023-09-03T11:07:42.300Z,57.18
2023-09-03T11:10:29.492Z,56.12
2023-09-03T11:12:58.256Z,55.35
2023-09-03T11:15:25.726Z,57.37
2023-09-03T11:17:53.993Z,55.23
2023-09-03T11:20:47.778Z,54.17
2023-09-03T11:23:17.639Z,55.46
2023-09-03T11:25:45.193Z,54.35
2023-09-03T11:28:14.043Z,51.67
2023-09-03T11:30:42.216Z,51.01
2023-09-03T11:33:10.964Z,52.50
2023-09-03T11:35:44.809Z,53.93
2023-09-03T11:38:12.755Z,54.79
2023-09-03T11:40:41.228Z,55.25
2023-09-03T11:43:12.214Z,53.51
2023-09-03T11:45:39.669Z,55.31
2023-09-03T11:48:09.150Z,50.87
2023-09-03T11:50:36.963Z,51.04
2023-09-03T11:53:10.481Z,49.09
2023-09-03T11:55:39.807Z,48.96
2023-09-03T11:58:08.374Z,54.01
2023-09-03T12:00:36.504Z,54.77
2023-09-03T12:03:04.397Z,54.15
2023-09-03T12:05:34.092Z,50.63
2023-09-03T12:10:31.518Z,49.99
2023-09-03T12:13:00.534Z,53.17
2023-09-03T12:15:30.480Z,47.67
2023-09-03T12:18:06.701Z,51.69
2023-09-03T12:20:35.178Z,52.52
2023-09-03T12:23:12.747Z,50.69
2023-09-03T12:25:42.250Z,51.99
2023-09-03T12:28:10.367Z,55.24
2023-09-03T12:30:57.342Z,49.86
2023-09-03T12:33:26.342Z,53.08
2023-09-03T12:36:05.691Z,53.34
2023-09-03T12:38:33.731Z,51.19
2023-09-03T12:41:04.957Z,55.31
2023-09-03T12:43:37.889Z,49.82
2023-09-03T12:46:05.429Z,53.75
2023-09-03T12:48:33.230Z,53.03
2023-09-03T12:51:01.009Z,49.60
2023-09-03T12:53:28.506Z,49.55
2023-09-03T12:55:56.854Z,53.99
2023-09-03T12:58:25.623Z,51.54
2023-09-03T13:00:54.370Z,47.93
2023-09-03T13:03:22.180Z,47.68
2023-09-03T13:05:50.229Z,51.77
2023-09-03T13:08:17.768Z,47.62
2023-09-03T13:10:45.320Z,50.89
2023-09-03T13:13:12.928Z,48.43
2023-09-03T13:15:41.734Z,52.95
2023-09-03T13:18:09.614Z,51.65
2023-09-03T13:20:37.242Z,52.88
2023-09-03T13:23:04.813Z,46.85
2023-09-03T13:25:35.110Z,50.18
2023-09-03T13:28:03.005Z,47.38
2023-09-03T13:30:30.473Z,48.32
2023-09-03T13:32:59.422Z,49.63
2023-09-03T13:35:28.921Z,49.45
2023-09-03T13:37:56.440Z,50.85
2023-09-03T13:40:23.884Z,47.00
2023-09-03T13:42:51.524Z,43.59
2023-09-03T13:45:19.165Z,45.94
2023-09-03T13:47:46.713Z,47.74
2023-09-03T13:50:15.515Z,46.87
2023-09-03T13:52:43.090Z,43.79
2023-09-03T13:55:10.781Z,47.63
2023-09-03T13:57:38.358Z,44.02
2023-09-03T14:00:06.236Z,43.75
2023-09-03T14:02:33.827Z,39.81
2023-09-03T14:05:01.451Z,46.77
2023-09-03T14:07:30.388Z,46.29
2023-09-03T14:09:57.804Z,49.82
2023-09-03T14:12:26.257Z,43.63
2023-09-03T14:14:54.013Z,47.03
2023-09-03T14:17:21.542Z,49.92
2023-09-03T14:19:49.326Z,48.99
2023-09-03T14:22:17.070Z,49.09
2023-09-03T14:24:46.091Z,47.63
2023-09-03T14:27:13.835Z,49.92
2023-09-03T14:29:44.160Z,46.15
2023-09-03T14:32:12.031Z,47.01
2023-09-03T14:34:41.664Z,47.59
2023-09-03T14:37:09.240Z,48.23
2023-09-03T14:39:36.889Z,43.83
2023-09-03T14:42:06.146Z,46.95
2023-09-03T14:44:33.628Z,47.47
2023-09-03T14:47:01.097Z,48.99
2023-09-03T14:49:40.160Z,51.45
2023-09-03T14:52:09.582Z,48.32
2023-09-03T14:54:37.147Z,47.44
2023-09-03T14:57:07.508Z,49.16
2023-09-03T14:59:35.015Z,50.08
2023-09-03T15:02:02.486Z,50.27
2023-09-03T15:04:31.553Z,48.48
2023-09-03T15:06:59.529Z,43.29
2023-09-03T15:09:27.180Z,44.86
2023-09-03T15:11:55.718Z,48.11
2023-09-03T15:14:24.516Z,46.23
2023-09-03T15:16:52.041Z,48.95
2023-09-03T15:19:21.230Z,46.00
2023-09-03T15:21:50.241Z,50.15
2023-09-03T15:24:18.278Z,46.34
2023-09-03T15:26:47.163Z,45.33
2023-09-03T15:29:14.784Z,46.13
2023-09-03T15:31:43.651Z,45.99
2023-09-03T15:34:11.903Z,46.74
2023-09-03T15:36:39.610Z,47.48
2023-09-03T15:39:07.111Z,48.17
2023-09-03T15:41:34.608Z,49.27
2023-09-03T15:44:04.776Z,47.09
2023-09-03T15:46:32.464Z,49.41
2023-09-03T15:49:01.806Z,51.91
2023-09-03T15:51:29.295Z,50.17
2023-09-03T15:53:56.819Z,44.17
2023-09-03T15:56:24.251Z,47.69
2023-09-03T15:58:52.094Z,49.74
2023-09-03T16:01:19.591Z,47.51
2023-09-03T16:03:47.125Z,49.57
2023-09-03T16:06:16.017Z,47.76
2023-09-03T16:08:43.445Z,47.22
2023-09-03T16:11:11.323Z,46.95
2023-09-03T16:13:38.860Z,46.78
2023-09-03T16:16:06.987Z,50.02
2023-09-03T16:18:34.493Z,49.20
2023-09-03T16:21:02.191Z,50.62
2023-09-03T16:23:30.990Z,49.02
2023-09-03T16:25:58.466Z,47.12
2023-09-03T16:28:26.112Z,47.22
2023-09-03T16:30:59.148Z,50.06
2023-09-03T16:33:26.729Z,49.72
2023-09-03T16:35:55.630Z,51.02
2023-09-03T16:38:23.293Z,48.79
2023-09-03T16:40:57.000Z,50.56
2023-09-03T16:43:24.318Z,50.48
2023-09-03T16:45:51.981Z,51.29
2023-09-03T16:48:19.747Z,48.98
2023-09-03T16:50:47.413Z,50.86
2023-09-03T16:53:15.019Z,52.90
2023-09-03T16:55:42.505Z,51.23
2023-09-03T16:58:11.543Z,54.15
2023-09-03T17:00:39.218Z,52.98
2023-09-03T17:03:07.255Z,55.90
2023-09-03T17:05:34.749Z,54.53
2023-09-03T17:08:03.273Z,57.19
2023-09-03T17:10:33.134Z,54.20
2023-09-03T17:13:00.620Z,57.06
2023-09-03T17:15:29.456Z,57.16
2023-09-03T17:17:56.917Z,56.10
2023-09-03T17:20:24.373Z,65.82
2023-09-03T17:22:51.824Z,70.70
2023-09-03T17:25:19.292Z,69.09
2023-09-03T17:27:48.216Z,71.92
2023-09-03T17:30:15.726Z,68.80
2023-09-03T17:32:46.176Z,72.86
2023-09-03T17:35:13.691Z,73.86
2023-09-03T17:37:41.167Z,74.79
2023-09-03T17:40:09.049Z,71.90
2023-09-03T17:42:37.197Z,76.94
2023-09-03T17:45:05.155Z,76.02
2023-09-03T17:47:32.891Z,75.69
2023-09-03T17:50:01.748Z,76.52
2023-09-03T17:52:29.259Z,76.92
2023-09-03T17:54:56.762Z,72.82
2023-09-03T17:57:25.321Z,75.88
2023-09-03T17:59:53.493Z,80.53
2023-09-03T18:02:21.501Z,82.54
2023-09-03T18:04:49.459Z,83.58
2023-09-03T18:07:18.790Z,82.72
2023-09-03T18:09:46.733Z,84.03
2023-09-03T18:12:14.645Z,85.08
2023-09-03T18:14:42.799Z,85.55
2023-09-03T18:17:10.943Z,85.60
2023-09-03T18:19:39.062Z,85.68
2023-09-03T18:22:06.894Z,85.83
2023-09-03T18:24:35.848Z,87.04
2023-09-03T18:27:04.513Z,87.24
2023-09-03T18:29:33.645Z,88.04
2023-09-03T18:32:01.101Z,86.67
2023-09-03T18:34:28.606Z,86.25
2023-09-03T18:36:56.059Z,88.36
2023-09-03T18:39:23.967Z,89.72
2023-09-03T18:41:52.767Z,90.20
2023-09-03T18:44:20.224Z,90.14
2023-09-03T18:46:47.706Z,89.99
2023-09-03T18:49:15.170Z,90.60
2023-09-03T18:51:46.566Z,90.92
2023-09-03T18:54:14.059Z,90.88
2023-09-03T18:56:41.574Z,91.01
2023-09-03T18:59:10.374Z,91.77
2023-09-03T19:01:37.810Z,91.70
2023-09-03T19:04:05.413Z,91.38
2023-09-03T19:06:32.882Z,92.94
2023-09-03T19:09:02.154Z,92.55
2023-09-03T19:11:30.044Z,92.86
2023-09-03T19:13:57.498Z,92.30
2023-09-03T19:16:26.737Z,93.33
2023-09-03T19:18:54.228Z,93.87
2023-09-03T19:21:22.444Z,93.50
2023-09-03T19:23:49.923Z,94.01
2023-09-03T19:26:17.495Z,93.96
2023-09-03T19:28:45.185Z,92.38
2023-09-03T19:31:12.733Z,92.72
2023-09-03T19:33:41.611Z,93.13
2023-09-03T19:36:11.727Z,93.95
2023-09-03T19:38:40.718Z,94.23
2023-09-03T19:41:08.783Z,94.26
2023-09-03T19:43:36.630Z,95.29
2023-09-03T19:46:04.425Z,94.79
2023-09-03T19:48:33.952Z,95.14
2023-09-03T19:51:03.578Z,94.39
2023-09-03T19:53:32.567Z,93.81
2023-09-03T19:56:01.897Z,94.23
2023-09-03T19:58:29.799Z,94.89
2023-09-03T20:00:57.586Z,95.58
2023-09-03T20:03:25.957Z,95.62
2023-09-03T20:05:57.308Z,95.69
2023-09-03T20:08:26.574Z,95.94
2023-09-03T20:10:55.741Z,95.82
2023-09-03T20:13:23.514Z,96.85
2023-09-03T20:15:57.128Z,97.41
2023-09-03T20:18:24.933Z,97.66
2023-09-03T20:20:53.077Z,97.09
2023-09-03T20:23:20.722Z,97.30
2023-09-03T20:25:57.294Z,97.08
2023-09-03T20:28:35.449Z,97.10
2023-09-03T20:31:07.563Z,97.58
2023-09-03T20:33:35.029Z,98.00
2023-09-03T20:36:02.579Z,99.02
2023-09-03T20:38:30.107Z,99.04
2023-09-03T20:40:59.975Z,99.23
2023-09-03T20:43:28.241Z,99.60
2023-09-03T20:45:56.923Z,99.66
2023-09-03T20:48:24.859Z,100.00
2023-09-03T20:50:52.547Z,100.00
2023-09-03T20:53:19.977Z,100.00
2023-09-03T20:55:51.023Z,99.56
2023-09-03T20:58:19.900Z,99.59
2023-09-03T21:00:47.743Z,100.00
2023-09-03T21:03:15.975Z,99.30
2023-09-03T21:05:49.357Z,99.00
2023-09-03T21:08:16.898Z,99.50
2023-09-03T21:10:44.545Z,99.72
2023-09-03T21:13:12.004Z,99.88
2023-09-03T21:15:41.330Z,100.00
2023-09-03T21:18:08.884Z,100.00
2023-09-03T21:20:36.340Z,100.00
2023-09-03T21:23:03.788Z,100.00
2023-09-03T21:25:34.387Z,100.00
2023-09-03T21:28:01.843Z,100.00
2023-09-03T21:30:31.084Z,100.00
2023-09-03T21:33:00.001Z,100.00
2023-09-03T21:35:27.491Z,100.00
2023-09-03T21:37:54.965Z,100.00
2023-09-03T21:40:22.602Z,100.00
2023-09-03T21:42:50.776Z,100.00
2023-09-03T21:45:18.312Z,100.00
2023-09-03T21:47:45.810Z,100.00
2023-09-03T21:50:14.846Z,100.00
2023-09-03T21:52:42.539Z,100.00
2023-09-03T21:55:11.933Z,100.00
2023-09-03T21:57:39.383Z,100.00
2023-09-03T22:00:11.125Z,100.00
2023-09-03T22:02:40.165Z,100.00
2023-09-03T22:05:09.380Z,100.00
2023-09-03T22:07:38.366Z,100.00
2023-09-03T22:10:06.586Z,100.00
2023-09-03T22:12:34.138Z,100.00
2023-09-03T22:15:01.704Z,100.00
2023-09-03T22:17:30.108Z,100.00
2023-09-03T22:19:58.379Z,100.00
2023-09-03T22:22:25.853Z,100.00
2023-09-03T22:24:54.643Z,100.00
2023-09-03T22:27:24.832Z,100.00
2023-09-03T22:29:52.356Z,100.00
2023-09-03T22:32:19.947Z,100.00
2023-09-03T22:34:47.434Z,100.00
2023-09-03T22:37:15.293Z,100.00
2023-09-03T22:39:42.748Z,100.00
2023-09-03T22:42:11.637Z,100.00
2023-09-03T22:44:39.213Z,100.00
2023-09-03T22:47:07.378Z,100.00
2023-09-03T22:49:34.817Z,100.00
2023-09-03T22:52:02.270Z,100.00
2023-09-03T22:54:29.763Z,100.00
2023-09-03T22:56:57.232Z,100.00
2023-09-03T22:59:26.015Z,100.00
2023-09-03T23:01:53.513Z,100.00
2023-09-03T23:04:21.048Z,100.00
2023-09-03T23:06:48.495Z,100.00
2023-09-03T23:09:15.973Z,100.00
2023-09-03T23:11:43.409Z,100.00
2023-09-03T23:14:10.922Z,100.00
2023-09-03T23:16:39.763Z,100.00
2023-09-03T23:19:07.289Z,100.00
2023-09-03T23:21:35.038Z,100.00
2023-09-03T23:24:02.464Z,100.00
2023-09-03T23:26:29.899Z,100.00
2023-09-03T23:28:59.247Z,100.00
2023-09-03T23:31:26.807Z,100.00
2023-09-03T23:33:55.605Z,100.00
2023-09-03T23:36:23.153Z,100.00
2023-09-03T23:38:50.582Z,100.00
2023-09-03T23:41:18.055Z,100.00
2023-09-03T23:43:45.677Z,100.00
2023-09-03T23:46:13.184Z,100.00
2023-09-03T23:48:40.844Z,100.00
2023-09-03T23:51:09.782Z,100.00
2023-09-03T23:53:37.215Z,100.00
2023-09-03T23:56:04.744Z,100.00
2023-09-03T23:58:32.338Z,100.00
